Time;durP1;ratioP1;P1;durP2;ratioP2;P2;SDS_P1;SDS_P2;PMS_P1;PMS_P2;Temp;Humidity;BMP_temperature;BMP_pressure;BME280_temperature;BME280_humidity;BME280_pressure;Samples;Min_cycle;Max_cycle;Signal;HPM_P1;HPM_P2
2022/08/04 00:01:29;;;;;;;;;3.80;3.80;;;;;;;;5009741;28;8820;-86
2022/08/04 00:04:02;;;;;;;;;2.20;2.20;;;;;;;;5008031;28;8895;-83
2022/08/04 00:06:39;;;;;;;;;3.80;3.00;;;;;;;;5008301;28;9365;-83
2022/08/04 00:09:11;;;;;;;;;3.80;3.00;;;;;;;;5003266;28;8899;-86
2022/08/04 00:11:45;;;;;;;;;3.00;3.00;;;;;;;;5018837;28;8865;-85
2022/08/04 00:14:14;;;;;;;;;2.40;2.40;;;;;;;;5006612;28;8880;-86
2022/08/04 00:16:43;;;;;;;;;5.80;3.00;;;;;;;;5013944;28;8868;-87
2022/08/04 00:19:12;;;;;;;;;4.00;4.00;;;;;;;;4990979;28;8989;-82
2022/08/04 00:21:45;;;;;;;;;4.40;4.40;;;;;;;;4995433;28;8872;-85
2022/08/04 00:24:13;;;;;;;;;3.20;3.20;;;;;;;;5003430;28;8872;-86
2022/08/04 00:26:42;;;;;;;;;1.80;1.80;;;;;;;;4997710;28;8882;-84
2022/08/04 00:29:10;;;;;;;;;3.40;3.40;;;;;;;;5005349;28;8876;-87
2022/08/04 00:31:38;;;;;;;;;6.00;4.20;;;;;;;;5005678;28;8839;-82
2022/08/04 00:34:06;;;;;;;;;3.40;3.40;;;;;;;;5017822;28;8880;-85
2022/08/04 00:36:50;;;;;;;;;5.60;4.60;;;;;;;;4998961;28;9026;-87
2022/08/04 00:39:30;;;;;;;;;3.00;3.00;;;;;;;;5001096;28;8892;-85
2022/08/04 00:42:16;;;;;;;;;3.60;3.60;;;;;;;;5002553;28;8898;-86
2022/08/04 00:44:57;;;;;;;;;3.00;3.00;;;;;;;;5000593;28;8899;-87
2022/08/04 00:47:45;;;;;;;;;3.00;3.00;;;;;;;;5001558;28;8869;-86
2022/08/04 00:50:19;;;;;;;;;5.20;3.80;;;;;;;;5004874;28;8950;-86
2022/08/04 00:53:06;;;;;;;;;3.20;3.20;;;;;;;;4994592;28;8870;-85
2022/08/04 00:55:59;;;;;;;;;3.00;3.00;;;;;;;;4996312;28;8879;-84
2022/08/04 00:58:36;;;;;;;;;4.60;4.60;;;;;;;;5006395;28;8864;-86
2022/08/04 01:01:05;;;;;;;;;7.00;4.40;;;;;;;;5004775;28;8797;-86
2022/08/04 01:03:49;;;;;;;;;4.00;2.60;;;;;;;;5016076;28;8904;-87
2022/08/04 01:06:35;;;;;;;;;3.20;3.20;;;;;;;;5006717;28;9010;-85
2022/08/04 01:09:28;;;;;;;;;2.00;2.00;;;;;;;;5005962;28;8886;-85
2022/08/04 01:12:15;;;;;;;;;4.40;3.00;;;;;;;;4997003;28;8898;-87
2022/08/04 01:15:04;;;;;;;;;1.00;1.00;;;;;;;;5007523;28;8906;-86
2022/08/04 01:17:41;;;;;;;;;3.00;3.00;;;;;;;;5004381;28;8872;-86
2022/08/04 01:20:10;;;;;;;;;4.60;4.00;;;;;;;;5005694;28;9686;-84
2022/08/04 01:23:15;;;;;;;;;3.60;3.60;;;;;;;;5006772;28;8892;-83
2022/08/04 01:26:18;;;;;;;;;3.20;3.20;;;;;;;;5003117;28;8883;-82
2022/08/04 01:29:09;;;;;;;;;4.00;4.00;;;;;;;;4973813;28;8884;-87
2022/08/04 01:31:49;;;;;;;;;3.00;3.00;;;;;;;;5005492;28;9744;-83
2022/08/04 01:34:19;;;;;;;;;3.00;3.00;;;;;;;;5004199;28;8983;-86
2022/08/04 01:36:51;;;;;;;;;3.00;3.00;;;;;;;;5006083;28;9673;-84
2022/08/04 01:42:05;;;;;;;;;3.60;3.60;;;;;;;;5009740;28;8941;-87
2022/08/04 01:44:36;;;;;;;;;2.60;2.60;;;;;;;;5008650;28;8890;-87
2022/08/04 01:47:04;;;;;;;;;3.00;3.00;;;;;;;;4992459;28;9662;-87
2022/08/04 01:49:32;;;;;;;;;2.80;2.60;;;;;;;;5006645;28;8872;-88
2022/08/04 01:52:00;;;;;;;;;1.20;1.20;;;;;;;;5005421;28;8894;-88
2022/08/04 01:54:31;;;;;;;;;2.20;2.20;;;;;;;;4994445;28;8870;-87
2022/08/04 01:56:59;;;;;;;;;2.20;2.20;;;;;;;;5005496;28;8856;-86
2022/08/04 01:59:28;;;;;;;;;2.00;2.00;;;;;;;;4994563;28;8925;-87
2022/08/04 02:01:58;;;;;;;;;2.80;2.80;;;;;;;;5001767;28;8809;-87
2022/08/04 02:04:26;;;;;;;;;3.20;2.60;;;;;;;;5004473;28;8876;-86
2022/08/04 02:07:03;;;;;;;;;2.00;2.00;;;;;;;;5006068;28;9012;-87
2022/08/04 02:09:39;;;;;;;;;2.00;2.00;;;;;;;;5005391;28;9650;-85
2022/08/04 02:12:13;;;;;;;;;2.00;2.00;;;;;;;;5005905;28;8860;-86
2022/08/04 02:14:47;;;;;;;;;1.00;1.00;;;;;;;;5007370;28;8902;-87
2022/08/04 02:17:26;;;;;;;;;2.25;2.25;;;;;;;;5004450;28;8880;-87
2022/08/04 02:20:05;;;;;;;;;4.00;2.50;;;;;;;;4995927;28;8876;-85
2022/08/04 02:22:34;;;;;;;;;3.75;2.25;;;;;;;;5006792;28;8981;-86
2022/08/04 02:25:07;;;;;;;;;2.20;2.20;;;;;;;;5006874;28;8868;-87
2022/08/04 02:27:59;;;;;;;;;2.00;2.00;;;;;;;;5006543;28;8888;-85
2022/08/04 02:30:31;;;;;;;;;1.20;1.20;;;;;;;;5002969;28;8777;-84
2022/08/04 02:33:03;;;;;;;;;1.60;1.60;;;;;;;;5006165;28;8883;-87
2022/08/04 02:35:36;;;;;;;;;3.00;3.00;;;;;;;;5003059;28;8906;-87
2022/08/04 02:38:13;;;;;;;;;3.80;3.00;;;;;;;;4984604;28;8879;-87
2022/08/04 02:40:40;;;;;;;;;3.00;3.00;;;;;;;;5006007;28;9674;-87
2022/08/04 02:43:10;;;;;;;;;3.00;2.00;;;;;;;;5004098;28;8860;-87
2022/08/04 02:45:37;;;;;;;;;2.00;2.00;;;;;;;;5005424;28;8888;-86
2022/08/04 02:48:09;;;;;;;;;3.20;2.00;;;;;;;;5002977;28;8872;-88
2022/08/04 02:50:38;;;;;;;;;2.00;2.00;;;;;;;;4992697;28;8910;-88
2022/08/04 02:53:06;;;;;;;;;3.40;2.00;;;;;;;;5003272;28;8881;-87
2022/08/04 02:55:34;;;;;;;;;2.00;2.00;;;;;;;;5004172;28;8904;-87
2022/08/04 02:58:04;;;;;;;;;2.00;2.00;;;;;;;;5003978;28;8876;-85
2022/08/04 03:00:31;;;;;;;;;2.20;1.60;;;;;;;;5006660;28;8800;-85
2022/08/04 03:03:11;;;;;;;;;2.00;2.00;;;;;;;;5008909;28;8860;-87
2022/08/04 03:05:53;;;;;;;;;1.40;1.40;;;;;;;;5003741;28;8872;-86
2022/08/04 03:08:45;;;;;;;;;2.00;2.00;;;;;;;;5004839;28;8912;-87
2022/08/04 03:11:45;;;;;;;;;0.00;0.00;;;;;;;;5003673;28;8843;-86
2022/08/04 03:14:51;;;;;;;;;3.00;1.40;;;;;;;;4966279;28;8887;-87
2022/08/04 03:17:43;;;;;;;;;1.80;1.80;;;;;;;;4993131;28;8888;-86
2022/08/04 03:20:37;;;;;;;;;1.40;1.40;;;;;;;;4994981;28;8890;-85
2022/08/04 03:23:30;;;;;;;;;2.00;2.00;;;;;;;;5002665;28;9361;-87
2022/08/04 03:26:33;;;;;;;;;1.00;1.00;;;;;;;;5001173;28;8895;-88
2022/08/04 03:29:27;;;;;;;;;4.40;3.00;;;;;;;;4971224;28;8975;-87
2022/08/04 03:32:34;;;;;;;;;2.00;2.00;;;;;;;;5004517;28;8969;-88
2022/08/04 03:35:14;;;;;;;;;2.00;2.00;;;;;;;;5004221;28;8893;-86
2022/08/04 03:38:11;;;;;;;;;2.00;2.00;;;;;;;;4992628;28;8864;-88
2022/08/04 03:41:04;;;;;;;;;3.20;2.00;;;;;;;;5002350;28;9010;-87
2022/08/04 03:43:48;;;;;;;;;2.00;2.00;;;;;;;;5004687;28;8880;-89
2022/08/04 03:53:40;;;;;;;;;1.00;1.00;;;;;;;;4939200;29;8929;-86
2022/08/04 03:56:30;;;;;;;;;1.80;1.80;;;;;;;;4944462;28;8932;-87
2022/08/04 03:59:10;;;;;;;;;2.40;1.00;;;;;;;;4991455;28;8995;-87
2022/08/04 04:01:59;;;;;;;;;1.00;1.00;;;;;;;;5003001;28;8817;-86
2022/08/04 04:11:42;;;;;;;;;1.80;1.80;;;;;;;;4927891;28;8998;-88
2022/08/04 04:14:23;;;;;;;;;1.00;1.00;;;;;;;;5002915;28;8876;-86
2022/08/04 04:17:00;;;;;;;;;1.80;1.80;;;;;;;;5002697;28;8954;-88
2022/08/04 04:19:50;;;;;;;;;1.40;1.40;;;;;;;;5002997;28;9012;-88
2022/08/04 04:22:45;;;;;;;;;2.80;1.80;;;;;;;;5008093;28;8899;-87
2022/08/04 04:25:25;;;;;;;;;1.00;1.00;;;;;;;;5005634;28;9642;-87
2022/08/04 04:28:27;;;;;;;;;2.40;2.40;;;;;;;;4994281;28;8880;-87
2022/08/04 04:31:03;;;;;;;;;1.40;1.40;;;;;;;;4950939;28;8828;-87
2022/08/04 04:33:38;;;;;;;;;5.00;2.40;;;;;;;;5007670;28;8904;-88
2022/08/04 04:36:13;;;;;;;;;2.00;2.00;;;;;;;;5010739;28;8919;-86
2022/08/04 04:39:01;;;;;;;;;1.20;1.20;;;;;;;;5008499;28;8882;-88
2022/08/04 04:41:49;;;;;;;;;0.80;0.80;;;;;;;;5007700;28;8891;-83
2022/08/04 04:44:43;;;;;;;;;1.20;1.20;;;;;;;;5023087;28;8885;-87
2022/08/04 04:47:14;;;;;;;;;2.60;1.60;;;;;;;;5005708;28;8876;-88
2022/08/04 04:49:49;;;;;;;;;1.00;1.00;;;;;;;;5006916;28;8888;-85
2022/08/04 04:52:24;;;;;;;;;1.60;1.60;;;;;;;;5006065;28;8876;-87
2022/08/04 04:58:03;;;;;;;;;1.00;1.00;;;;;;;;4935725;28;8912;-88
2022/08/04 05:00:43;;;;;;;;;2.00;2.00;;;;;;;;5015151;28;9571;-88
2022/08/04 05:03:29;;;;;;;;;2.40;2.00;;;;;;;;5023489;28;9004;-90
2022/08/04 05:06:11;;;;;;;;;1.20;1.20;;;;;;;;5012062;28;8896;-89
2022/08/04 05:09:12;;;;;;;;;1.60;1.00;;;;;;;;5014845;28;8961;-88
2022/08/04 05:12:14;;;;;;;;;2.40;2.00;;;;;;;;5021920;28;8870;-89
2022/08/04 05:14:46;;;;;;;;;2.00;2.00;;;;;;;;5012383;28;8866;-88
2022/08/04 05:17:20;;;;;;;;;2.00;2.00;;;;;;;;5007837;28;8887;-88
2022/08/04 05:19:54;;;;;;;;;2.00;2.00;;;;;;;;4995161;28;8926;-87
2022/08/04 05:22:27;;;;;;;;;1.00;1.00;;;;;;;;5005439;28;8892;-88
2022/08/04 05:25:09;;;;;;;;;1.00;1.00;;;;;;;;5007049;28;8860;-89
2022/08/04 05:27:39;;;;;;;;;0.00;0.00;;;;;;;;5006536;28;8856;-87
2022/08/04 05:30:08;;;;;;;;;1.20;1.20;;;;;;;;5005600;28;8890;-88
2022/08/04 05:32:44;;;;;;;;;2.00;1.00;;;;;;;;5004031;28;8965;-88
2022/08/04 05:35:16;;;;;;;;;1.00;1.00;;;;;;;;5005739;28;8884;-88
2022/08/04 05:37:45;;;;;;;;;1.00;1.00;;;;;;;;5006616;28;8993;-89
2022/08/04 05:40:13;;;;;;;;;1.00;1.00;;;;;;;;5004294;28;9639;-88
2022/08/04 05:42:41;;;;;;;;;1.60;1.60;;;;;;;;5007297;28;8872;-87
2022/08/04 05:45:09;;;;;;;;;1.00;1.00;;;;;;;;5006309;28;9011;-85
2022/08/04 05:47:39;;;;;;;;;1.20;1.00;;;;;;;;5005759;28;8872;-89
2022/08/04 05:50:07;;;;;;;;;0.20;0.20;;;;;;;;5005213;28;8840;-89
2022/08/04 05:52:36;;;;;;;;;1.00;1.00;;;;;;;;5005590;28;8875;-87
2022/08/04 05:55:05;;;;;;;;;1.00;1.00;;;;;;;;5006377;28;8978;-88
2022/08/04 05:57:33;;;;;;;;;1.20;1.20;;;;;;;;5004665;28;8876;-87
2022/08/04 06:00:03;;;;;;;;;1.00;1.00;;;;;;;;5006205;28;9130;-89
2022/08/04 06:02:31;;;;;;;;;0.80;0.80;;;;;;;;5004900;28;8824;-88
2022/08/04 06:05:01;;;;;;;;;3.00;1.20;;;;;;;;5004791;28;8876;-86
2022/08/04 06:07:29;;;;;;;;;1.00;1.00;;;;;;;;5005261;28;8933;-88
2022/08/04 06:09:56;;;;;;;;;1.00;1.00;;;;;;;;5004178;28;8888;-88
2022/08/04 06:12:27;;;;;;;;;1.00;1.00;;;;;;;;5006608;28;8864;-86
2022/08/04 06:18:10;;;;;;;;;1.00;1.00;;;;;;;;4921088;29;8843;-87
2022/08/04 06:20:42;;;;;;;;;1.40;0.80;;;;;;;;5002454;28;8918;-89
2022/08/04 06:23:11;;;;;;;;;1.80;1.80;;;;;;;;5006792;28;8871;-88
2022/08/04 06:25:43;;;;;;;;;1.00;1.00;;;;;;;;5009267;28;8880;-85
2022/08/04 06:28:11;;;;;;;;;0.80;0.80;;;;;;;;5005741;28;8876;-89
2022/08/04 06:30:40;;;;;;;;;0.40;0.40;;;;;;;;5002325;28;9711;-88
2022/08/04 06:33:23;;;;;;;;;0.00;0.00;;;;;;;;4996120;28;8888;-87
2022/08/04 06:35:54;;;;;;;;;3.20;0.60;;;;;;;;5004852;28;8876;-88
2022/08/04 06:38:22;;;;;;;;;0.00;0.00;;;;;;;;5005725;28;8891;-86
2022/08/04 06:40:50;;;;;;;;;0.00;0.00;;;;;;;;4993235;28;8869;-89
2022/08/04 06:43:17;;;;;;;;;0.00;0.00;;;;;;;;5007133;28;8880;-87
2022/08/04 06:45:46;;;;;;;;;0.00;0.00;;;;;;;;5002782;28;8983;-87
2022/08/04 06:48:16;;;;;;;;;0.00;0.00;;;;;;;;5005493;28;8980;-88
2022/08/04 06:50:45;;;;;;;;;0.00;0.00;;;;;;;;5004691;28;8860;-88
2022/08/04 07:06:22;;;;;;;;;0.00;0.00;;;;;;;;5439764;22;8794;-88
2022/08/04 07:08:51;;;;;;;;;0.00;0.00;;;;;;;;5044048;28;8883;-88
2022/08/04 07:11:20;;;;;;;;;0.00;0.00;;;;;;;;5045541;28;8876;-88
2022/08/04 07:13:48;;;;;;;;;0.80;0.00;;;;;;;;5042812;28;8859;-88
2022/08/04 07:16:17;;;;;;;;;0.00;0.00;;;;;;;;5043738;28;8912;-88
2022/08/04 07:18:45;;;;;;;;;0.00;0.00;;;;;;;;5041385;28;8917;-87
2022/08/04 07:21:17;;;;;;;;;0.00;0.00;;;;;;;;5023228;28;8914;-89
2022/08/04 07:23:46;;;;;;;;;0.00;0.00;;;;;;;;5042326;28;8889;-88
2022/08/04 07:29:00;;;;;;;;;0.00;0.00;;;;;;;;4907599;28;9499;-88
2022/08/04 07:31:31;;;;;;;;;1.00;0.00;;;;;;;;4980562;28;8795;-82
2022/08/04 07:33:58;;;;;;;;;0.00;0.00;;;;;;;;4981007;28;9710;-82
2022/08/04 07:36:28;;;;;;;;;0.60;0.00;;;;;;;;4981026;28;8849;-79
2022/08/04 07:38:57;;;;;;;;;0.00;0.00;;;;;;;;4979609;28;9637;-78
2022/08/04 07:41:29;;;;;;;;;0.00;0.00;;;;;;;;4981465;28;9664;-80
2022/08/04 07:43:57;;;;;;;;;0.00;0.00;;;;;;;;4975391;28;8866;-78
2022/08/04 07:46:26;;;;;;;;;0.00;0.00;;;;;;;;4996339;28;8851;-80
2022/08/04 07:48:53;;;;;;;;;0.00;0.00;;;;;;;;5042075;28;8957;-80
2022/08/04 07:51:20;;;;;;;;;0.00;0.00;;;;;;;;5041958;28;8982;-82
2022/08/04 07:53:49;;;;;;;;;0.00;0.00;;;;;;;;5042275;28;8884;-81
2022/08/04 07:56:17;;;;;;;;;0.00;0.00;;;;;;;;5039606;28;8863;-80
2022/08/04 07:58:46;;;;;;;;;0.00;0.00;;;;;;;;5044864;28;9669;-80
2022/08/04 08:01:14;;;;;;;;;0.00;0.00;;;;;;;;5025842;28;8967;-80
2022/08/04 08:03:41;;;;;;;;;0.00;0.00;;;;;;;;5045396;28;9629;-80
2022/08/04 08:06:09;;;;;;;;;0.00;0.00;;;;;;;;5044147;28;8872;-80
2022/08/04 08:08:38;;;;;;;;;0.00;0.00;;;;;;;;5045503;28;8848;-78
2022/08/04 08:11:06;;;;;;;;;0.20;0.20;;;;;;;;5042998;28;8860;-80
2022/08/04 08:13:34;;;;;;;;;0.00;0.00;;;;;;;;5044236;28;8872;-80
2022/08/04 08:16:03;;;;;;;;;0.00;0.00;;;;;;;;5045103;28;8892;-79
2022/08/04 08:18:31;;;;;;;;;0.80;0.80;;;;;;;;5041685;28;8852;-78
2022/08/04 08:20:59;;;;;;;;;0.00;0.00;;;;;;;;5045086;28;8892;-78
2022/08/04 08:23:27;;;;;;;;;0.00;0.00;;;;;;;;5044501;28;8851;-78
2022/08/04 08:25:54;;;;;;;;;0.00;0.00;;;;;;;;5045102;28;8860;-78
2022/08/04 08:28:21;;;;;;;;;0.80;0.00;;;;;;;;5044902;28;8918;-77
2022/08/04 08:30:49;;;;;;;;;0.00;0.00;;;;;;;;5043428;28;9602;-78
2022/08/04 08:33:18;;;;;;;;;0.00;0.00;;;;;;;;5044754;28;8852;-77
2022/08/04 08:35:50;;;;;;;;;0.00;0.00;;;;;;;;5043251;28;9668;-81
2022/08/04 08:38:20;;;;;;;;;0.00;0.00;;;;;;;;5042114;28;8859;-79
2022/08/04 08:40:51;;;;;;;;;0.00;0.00;;;;;;;;5044181;28;8852;-78
2022/08/04 08:43:45;;;;;;;;;0.00;0.00;;;;;;;;5045461;28;8872;-79
2022/08/04 08:46:31;;;;;;;;;0.20;0.20;;;;;;;;5026166;28;8844;-80
2022/08/04 08:49:24;;;;;;;;;0.00;0.00;;;;;;;;5025578;28;9540;-80
2022/08/04 08:52:04;;;;;;;;;0.00;0.00;;;;;;;;5044421;28;8863;-76
2022/08/04 08:54:52;;;;;;;;;0.00;0.00;;;;;;;;5043130;28;8859;-76
2022/08/04 08:57:47;;;;;;;;;0.00;0.00;;;;;;;;5043415;28;8884;-75
2022/08/04 09:00:20;;;;;;;;;0.00;0.00;;;;;;;;5042646;28;8955;-79
2022/08/04 09:03:22;;;;;;;;;0.00;0.00;;;;;;;;5040440;28;8886;-78
2022/08/04 09:06:19;;;;;;;;;0.00;0.00;;;;;;;;5029527;28;8868;-77
2022/08/04 09:09:06;;;;;;;;;0.00;0.00;;;;;;;;5037252;28;9630;-75
2022/08/04 09:11:39;;;;;;;;;0.00;0.00;;;;;;;;5041633;28;8863;-77
2022/08/04 09:14:22;;;;;;;;;0.00;0.00;;;;;;;;5044355;28;8899;-77
2022/08/04 09:16:53;;;;;;;;;0.00;0.00;;;;;;;;5041001;28;8836;-79
2022/08/04 09:19:27;;;;;;;;;0.00;0.00;;;;;;;;5025595;28;8969;-75
2022/08/04 09:22:01;;;;;;;;;0.00;0.00;;;;;;;;5044924;28;8871;-78
2022/08/04 09:24:35;;;;;;;;;0.00;0.00;;;;;;;;5026084;28;8902;-76
2022/08/04 09:27:06;;;;;;;;;0.00;0.00;;;;;;;;5043236;28;8871;-75
2022/08/04 09:29:40;;;;;;;;;0.60;0.60;;;;;;;;5032638;28;8966;-74
2022/08/04 09:32:12;;;;;;;;;0.00;0.00;;;;;;;;5041396;28;8820;-76
2022/08/04 09:34:48;;;;;;;;;0.00;0.00;;;;;;;;5044130;28;8847;-77
2022/08/04 09:37:23;;;;;;;;;1.00;1.00;;;;;;;;5043078;28;8872;-78
2022/08/04 09:39:59;;;;;;;;;0.80;0.80;;;;;;;;5026974;28;8860;-78
2022/08/04 09:42:38;;;;;;;;;0.80;0.80;;;;;;;;5045212;28;8864;-78
2022/08/04 09:45:12;;;;;;;;;0.60;0.60;;;;;;;;5043954;28;9006;-78
2022/08/04 09:47:46;;;;;;;;;0.00;0.00;;;;;;;;5044689;28;8864;-78
2022/08/04 09:50:27;;;;;;;;;0.60;0.60;;;;;;;;5047434;28;8868;-79
2022/08/04 09:53:03;;;;;;;;;0.00;0.00;;;;;;;;5041621;28;8872;-78
2022/08/04 09:55:38;;;;;;;;;0.00;0.00;;;;;;;;5043896;28;8836;-79
2022/08/04 09:58:12;;;;;;;;;0.00;0.00;;;;;;;;5043706;28;8898;-77
2022/08/04 10:00:45;;;;;;;;;0.00;0.00;;;;;;;;5044227;28;8783;-79
2022/08/04 10:03:14;;;;;;;;;0.00;0.00;;;;;;;;5043237;28;8857;-79
2022/08/04 10:06:03;;;;;;;;;1.40;1.00;;;;;;;;5045142;28;8859;-78
2022/08/04 10:08:44;;;;;;;;;1.00;1.00;;;;;;;;5043144;28;8844;-79
2022/08/04 10:11:16;;;;;;;;;0.00;0.00;;;;;;;;5041217;28;8905;-78
2022/08/04 10:13:52;;;;;;;;;0.00;0.00;;;;;;;;5045059;28;8860;-79
2022/08/04 10:16:31;;;;;;;;;0.00;0.00;;;;;;;;5040706;28;9642;-79
2022/08/04 10:19:06;;;;;;;;;0.00;0.00;;;;;;;;5039067;28;8892;-79
2022/08/04 10:21:42;;;;;;;;;0.00;0.00;;;;;;;;5027005;28;8848;-75
2022/08/04 10:24:24;;;;;;;;;0.40;0.40;;;;;;;;5046019;28;8847;-78
2022/08/04 10:26:53;;;;;;;;;0.80;0.80;;;;;;;;5027085;28;8883;-78
2022/08/04 10:29:26;;;;;;;;;0.60;0.60;;;;;;;;5043036;28;8871;-79
2022/08/04 10:31:59;;;;;;;;;0.00;0.00;;;;;;;;5043263;28;8808;-79
2022/08/04 10:34:29;;;;;;;;;0.00;0.00;;;;;;;;5043291;28;8856;-76
2022/08/04 10:37:05;;;;;;;;;1.00;0.20;;;;;;;;5043628;28;8961;-79
2022/08/04 10:40:35;;;;;;;;;0.00;0.00;;;;;;;;5035309;28;9727;-78
2022/08/04 10:42:31;;;;;;;;;0.00;0.00;;;;;;;;5041140;28;8860;-79
2022/08/04 10:45:08;;;;;;;;;1.00;1.00;;;;;;;;5043940;28;8863;-79
2022/08/04 10:47:42;;;;;;;;;0.00;0.00;;;;;;;;5046749;28;8840;-77
2022/08/04 10:50:12;;;;;;;;;0.00;0.00;;;;;;;;5044999;28;8974;-79
2022/08/04 10:52:44;;;;;;;;;2.00;0.20;;;;;;;;5043574;28;9671;-78
2022/08/04 10:55:17;;;;;;;;;0.00;0.00;;;;;;;;5042193;28;8862;-77
2022/08/04 10:57:50;;;;;;;;;0.00;0.00;;;;;;;;5044207;28;8971;-78
2022/08/04 11:00:22;;;;;;;;;0.00;0.00;;;;;;;;5040375;28;9626;-76
2022/08/04 11:02:56;;;;;;;;;0.20;0.20;;;;;;;;5042711;28;8876;-77
2022/08/04 11:05:28;;;;;;;;;1.40;0.40;;;;;;;;5043637;28;8860;-79
2022/08/04 11:08:02;;;;;;;;;0.00;0.00;;;;;;;;5042272;28;8894;-79
2022/08/04 11:10:35;;;;;;;;;0.00;0.00;;;;;;;;5043405;28;8875;-79
2022/08/04 11:13:06;;;;;;;;;0.00;0.00;;;;;;;;5042206;28;8898;-77
2022/08/04 11:15:38;;;;;;;;;0.60;0.20;;;;;;;;5044060;28;8863;-74
2022/08/04 11:18:09;;;;;;;;;0.00;0.00;;;;;;;;5042890;28;8987;-77
2022/08/04 11:20:45;;;;;;;;;0.00;0.00;;;;;;;;5042588;28;8882;-78
2022/08/04 11:23:14;;;;;;;;;0.00;0.00;;;;;;;;5043567;28;8853;-76
2022/08/04 11:25:51;;;;;;;;;0.00;0.00;;;;;;;;5039958;28;8864;-76
2022/08/04 11:28:25;;;;;;;;;0.00;0.00;;;;;;;;5034999;28;8983;-77
2022/08/04 11:30:56;;;;;;;;;0.20;0.20;;;;;;;;5044113;28;8796;-76
2022/08/04 11:33:32;;;;;;;;;1.40;1.40;;;;;;;;5046945;28;8864;-77
2022/08/04 11:36:05;;;;;;;;;0.00;0.00;;;;;;;;5045478;28;8961;-77
2022/08/04 11:38:37;;;;;;;;;0.00;0.00;;;;;;;;5046518;28;9425;-78
2022/08/04 11:41:10;;;;;;;;;0.00;0.00;;;;;;;;5047639;28;8937;-77
2022/08/04 11:43:43;;;;;;;;;0.00;0.00;;;;;;;;5046387;28;8870;-79
2022/08/04 11:46:15;;;;;;;;;1.00;0.00;;;;;;;;5046947;28;9676;-78
2022/08/04 11:48:51;;;;;;;;;0.40;0.40;;;;;;;;5047258;28;8876;-78
2022/08/04 11:51:20;;;;;;;;;0.00;0.00;;;;;;;;5043898;28;8890;-78
2022/08/04 11:53:48;;;;;;;;;0.00;0.00;;;;;;;;5047362;28;8859;-79
2022/08/04 11:56:17;;;;;;;;;0.00;0.00;;;;;;;;5045598;28;8848;-78
2022/08/04 11:58:45;;;;;;;;;0.00;0.00;;;;;;;;5047062;28;8852;-79
2022/08/04 12:01:19;;;;;;;;;1.00;0.00;;;;;;;;5045528;28;8772;-78
2022/08/04 12:04:02;;;;;;;;;0.00;0.00;;;;;;;;5046755;28;8863;-78
2022/08/04 12:06:33;;;;;;;;;1.20;1.00;;;;;;;;5047134;28;8856;-79
2022/08/04 12:09:12;;;;;;;;;0.00;0.00;;;;;;;;5045457;28;8884;-76
2022/08/04 12:11:49;;;;;;;;;0.40;0.40;;;;;;;;5044439;28;8879;-78
2022/08/04 12:14:33;;;;;;;;;0.00;0.00;;;;;;;;5046311;28;8852;-78
2022/08/04 12:17:02;;;;;;;;;0.00;0.00;;;;;;;;5043489;28;8879;-76
2022/08/04 12:19:51;;;;;;;;;0.00;0.00;;;;;;;;5044466;28;8848;-77
2022/08/04 12:22:22;;;;;;;;;0.00;0.00;;;;;;;;5045680;28;8894;-78
2022/08/04 12:24:53;;;;;;;;;0.00;0.00;;;;;;;;5046512;28;8866;-78
2022/08/04 12:27:26;;;;;;;;;0.00;0.00;;;;;;;;5043455;28;10070;-75
2022/08/04 12:29:56;;;;;;;;;0.00;0.00;;;;;;;;5037061;28;9638;-76
2022/08/04 12:32:28;;;;;;;;;0.00;0.00;;;;;;;;5045676;28;8788;-78
2022/08/04 12:35:03;;;;;;;;;0.00;0.00;;;;;;;;5044995;28;8876;-78
2022/08/04 12:37:42;;;;;;;;;0.00;0.00;;;;;;;;5046212;28;8876;-78
2022/08/04 12:40:20;;;;;;;;;1.20;0.80;;;;;;;;5045780;28;8852;-77
2022/08/04 12:42:57;;;;;;;;;0.40;0.40;;;;;;;;5046412;28;9301;-77
2022/08/04 12:45:24;;;;;;;;;0.00;0.00;;;;;;;;5046148;28;9732;-76
2022/08/04 12:47:54;;;;;;;;;0.80;0.80;;;;;;;;5044831;28;8840;-76
2022/08/04 12:50:22;;;;;;;;;0.80;0.80;;;;;;;;5045774;28;8855;-78
2022/08/04 12:52:53;;;;;;;;;1.00;1.00;;;;;;;;5044232;28;8895;-77
2022/08/04 12:55:22;;;;;;;;;1.00;0.00;;;;;;;;5046512;28;8860;-73
2022/08/04 12:57:57;;;;;;;;;0.00;0.00;;;;;;;;5045221;28;8941;-75
2022/08/04 13:00:30;;;;;;;;;3.00;1.00;;;;;;;;5044972;28;8800;-77
2022/08/04 13:03:04;;;;;;;;;0.60;0.60;;;;;;;;5045992;28;8863;-76
2022/08/04 13:05:32;;;;;;;;;1.00;1.00;;;;;;;;5035509;28;8860;-75
2022/08/04 13:08:03;;;;;;;;;1.00;1.00;;;;;;;;5045745;28;8880;-76
2022/08/04 13:10:31;;;;;;;;;0.00;0.00;;;;;;;;5043777;28;8932;-76
2022/08/04 13:13:01;;;;;;;;;0.00;0.00;;;;;;;;5046262;28;9528;-79
2022/08/04 13:15:29;;;;;;;;;0.80;0.80;;;;;;;;5045673;28;8860;-77
2022/08/04 13:17:59;;;;;;;;;0.20;0.20;;;;;;;;5040901;28;8879;-78
2022/08/04 13:20:32;;;;;;;;;0.60;0.60;;;;;;;;5045485;28;9673;-77
2022/08/04 13:23:06;;;;;;;;;0.00;0.00;;;;;;;;5041141;28;8922;-78
2022/08/04 13:25:38;;;;;;;;;1.00;1.00;;;;;;;;5044259;28;8882;-79
2022/08/04 13:28:13;;;;;;;;;1.40;1.00;;;;;;;;5043011;28;8868;-75
2022/08/04 13:30:40;;;;;;;;;1.00;1.00;;;;;;;;5044837;28;8796;-77
2022/08/04 13:33:08;;;;;;;;;1.00;0.00;;;;;;;;5045012;28;9610;-77
2022/08/04 13:35:37;;;;;;;;;1.00;1.00;;;;;;;;5043674;28;8883;-77
2022/08/04 13:38:08;;;;;;;;;0.20;0.20;;;;;;;;5045126;28;8952;-76
2022/08/04 13:40:36;;;;;;;;;1.60;1.60;;;;;;;;5043357;28;8848;-77
2022/08/04 13:43:04;;;;;;;;;1.40;1.40;;;;;;;;5045023;28;8890;-77
2022/08/04 13:45:33;;;;;;;;;2.00;2.00;;;;;;;;5043769;28;8894;-74
2022/08/04 13:48:01;;;;;;;;;2.00;1.00;;;;;;;;5041994;28;9610;-77
2022/08/04 13:50:29;;;;;;;;;0.40;0.40;;;;;;;;5044316;28;9665;-77
2022/08/04 13:52:59;;;;;;;;;0.00;0.00;;;;;;;;5043399;28;8864;-77
2022/08/04 13:55:29;;;;;;;;;0.60;0.60;;;;;;;;5042192;28;8864;-78
2022/08/04 13:58:03;;;;;;;;;1.00;1.00;;;;;;;;5043276;28;8864;-77
2022/08/04 14:00:49;;;;;;;;;1.00;0.80;;;;;;;;5044408;28;8802;-76
2022/08/04 14:03:30;;;;;;;;;2.00;0.60;;;;;;;;5045033;28;8856;-77
2022/08/04 14:06:14;;;;;;;;;1.00;1.00;;;;;;;;5037542;28;8934;-78
2022/08/04 14:08:48;;;;;;;;;4.00;2.00;;;;;;;;5044772;28;8922;-76
2022/08/04 14:11:17;;;;;;;;;3.00;1.00;;;;;;;;5042222;28;8874;-77
2022/08/04 14:13:45;;;;;;;;;2.80;2.00;;;;;;;;5045436;28;8914;-78
2022/08/04 14:16:18;;;;;;;;;1.40;1.40;;;;;;;;5043010;28;8846;-75
2022/08/04 14:18:46;;;;;;;;;1.00;1.00;;;;;;;;5038599;28;8941;-78
2022/08/04 14:21:15;;;;;;;;;3.00;1.00;;;;;;;;5044218;28;8868;-74
2022/08/04 14:23:51;;;;;;;;;1.00;1.00;;;;;;;;5042938;28;8911;-77
2022/08/04 14:26:24;;;;;;;;;1.00;1.00;;;;;;;;5043493;28;8892;-77
2022/08/04 14:28:52;;;;;;;;;0.40;0.40;;;;;;;;5043041;28;8876;-75
2022/08/04 14:31:23;;;;;;;;;1.00;1.00;;;;;;;;5043033;28;8789;-76
2022/08/04 14:33:53;;;;;;;;;0.60;0.60;;;;;;;;5044275;28;8933;-77
2022/08/04 14:36:21;;;;;;;;;1.60;1.60;;;;;;;;5042763;28;8878;-75
2022/08/04 14:38:51;;;;;;;;;0.00;0.00;;;;;;;;5044632;28;8876;-76
2022/08/04 14:41:23;;;;;;;;;0.40;0.40;;;;;;;;5043057;28;8878;-78
2022/08/04 14:43:53;;;;;;;;;1.00;1.00;;;;;;;;5044237;28;8864;-76
2022/08/04 14:46:22;;;;;;;;;0.20;0.20;;;;;;;;5043088;28;8999;-75
2022/08/04 14:49:07;;;;;;;;;1.40;1.40;;;;;;;;5041264;28;8866;-77
2022/08/04 14:51:40;;;;;;;;;1.20;0.80;;;;;;;;5040228;28;9606;-76
2022/08/04 14:54:08;;;;;;;;;0.00;0.00;;;;;;;;5042708;28;9717;-76
2022/08/04 14:56:36;;;;;;;;;0.80;0.80;;;;;;;;5043291;28;8860;-77
2022/08/04 14:59:05;;;;;;;;;0.80;0.80;;;;;;;;5042520;28;8883;-75
2022/08/04 15:01:35;;;;;;;;;1.60;1.60;;;;;;;;5041771;28;8910;-77
2022/08/04 15:04:04;;;;;;;;;0.20;0.20;;;;;;;;5042844;28;8836;-78
2022/08/04 15:06:33;;;;;;;;;1.00;1.00;;;;;;;;5040849;28;8917;-77
2022/08/04 15:09:03;;;;;;;;;1.20;1.20;;;;;;;;5042576;28;8848;-77
2022/08/04 15:11:30;;;;;;;;;1.20;1.20;;;;;;;;5032817;28;8890;-74
2022/08/04 15:13:58;;;;;;;;;1.00;1.00;;;;;;;;5043688;28;8867;-77
2022/08/04 15:16:27;;;;;;;;;1.00;1.00;;;;;;;;5041970;28;8848;-77
2022/08/04 15:18:59;;;;;;;;;1.00;1.00;;;;;;;;5043295;28;8972;-77
2022/08/04 15:21:28;;;;;;;;;1.80;1.80;;;;;;;;5043114;28;8866;-77
2022/08/04 15:23:56;;;;;;;;;3.00;1.00;;;;;;;;5042104;28;8872;-76
2022/08/04 15:26:35;;;;;;;;;2.00;2.00;;;;;;;;5035802;28;9001;-76
2022/08/04 15:29:08;;;;;;;;;2.00;1.00;;;;;;;;5040025;28;8864;-77
2022/08/04 15:31:39;;;;;;;;;1.40;1.40;;;;;;;;5024718;28;8947;-77
2022/08/04 15:34:08;;;;;;;;;3.80;2.00;;;;;;;;5042153;28;8872;-76
2022/08/04 15:36:41;;;;;;;;;1.60;1.60;;;;;;;;5042565;28;8864;-77
2022/08/04 15:39:16;;;;;;;;;2.60;1.60;;;;;;;;5034452;28;9633;-77
2022/08/04 15:41:51;;;;;;;;;2.20;2.20;;;;;;;;5041758;28;8860;-76
2022/08/04 15:44:46;;;;;;;;;1.00;1.00;;;;;;;;5043715;28;8925;-77
2022/08/04 15:47:15;;;;;;;;;2.40;2.40;;;;;;;;5039936;28;8959;-76
2022/08/04 15:49:45;;;;;;;;;1.60;0.20;;;;;;;;5041345;28;8855;-78
2022/08/04 15:52:16;;;;;;;;;0.00;0.00;;;;;;;;5043279;28;8856;-77
2022/08/04 15:54:44;;;;;;;;;2.80;2.80;;;;;;;;5041748;28;8876;-77
2022/08/04 15:57:11;;;;;;;;;3.60;2.00;;;;;;;;5043171;28;8856;-78
2022/08/04 16:00:04;;;;;;;;;4.00;2.60;;;;;;;;5041572;28;8896;-77
2022/08/04 16:02:49;;;;;;;;;3.80;1.60;;;;;;;;5025178;28;8838;-76
2022/08/04 16:05:38;;;;;;;;;2.60;2.60;;;;;;;;5042144;28;8848;-78
2022/08/04 16:08:16;;;;;;;;;2.40;2.40;;;;;;;;5041772;28;8848;-77
2022/08/04 16:10:47;;;;;;;;;3.00;3.00;;;;;;;;5042154;28;8860;-78
2022/08/04 16:13:15;;;;;;;;;3.00;3.00;;;;;;;;5040497;28;8883;-78
2022/08/04 16:15:45;;;;;;;;;1.40;1.40;;;;;;;;5042337;28;8864;-78
2022/08/04 16:18:20;;;;;;;;;3.60;2.40;;;;;;;;5041648;28;8855;-78
2022/08/04 16:20:49;;;;;;;;;2.00;2.00;;;;;;;;5045474;28;8872;-75